sensor_id;sensor_type;location;lat;lon;timestamp;pressure;altitude;pressure_sealevel;temperature;humidity
26859;BME280;14429;48.346;16.338;2022-12-18T00:02:08;101307.34;;;11.72;54.36
26859;BME280;14429;48.346;16.338;2022-12-18T00:04:33;101302.00;;;11.72;54.30
26859;BME280;14429;48.346;16.338;2022-12-18T00:07:00;101309.81;;;11.58;54.53
26859;BME280;14429;48.346;16.338;2022-12-18T00:09:26;101316.31;;;10.96;49.17
26859;BME280;14429;48.346;16.338;2022-12-18T00:11:51;101325.69;;;11.43;55.03
26859;BME280;14429;48.346;16.338;2022-12-18T00:14:16;101323.06;;;11.42;55.24
26859;BME280;14429;48.346;16.338;2022-12-18T00:16:43;101325.66;;;11.61;54.78
26859;BME280;14429;48.346;16.338;2022-12-18T00:19:09;101333.00;;;11.58;54.86
26859;BME280;14429;48.346;16.338;2022-12-18T00:21:35;101337.88;;;11.49;54.99
26859;BME280;14429;48.346;16.338;2022-12-18T00:24:02;101328.44;;;11.60;55.10
26859;BME280;14429;48.346;16.338;2022-12-18T00:26:29;101328.91;;;11.50;54.98
26859;BME280;14429;48.346;16.338;2022-12-18T00:28:58;101328.00;;;11.51;54.90
26859;BME280;14429;48.346;16.338;2022-12-18T00:31:24;101330.88;;;11.64;54.41
26859;BME280;14429;48.346;16.338;2022-12-18T00:33:50;101334.13;;;11.53;54.60
26859;BME280;14429;48.346;16.338;2022-12-18T00:36:17;101335.22;;;11.67;54.38
26859;BME280;14429;48.346;16.338;2022-12-18T00:38:44;101332.59;;;11.65;54.32
26859;BME280;14429;48.346;16.338;2022-12-18T00:41:13;101342.06;;;11.54;54.56
26859;BME280;14429;48.346;16.338;2022-12-18T00:43:39;101341.44;;;11.67;54.08
26859;BME280;14429;48.346;16.338;2022-12-18T00:46:05;101346.53;;;10.96;54.04
26859;BME280;14429;48.346;16.338;2022-12-18T00:48:31;101347.06;;;11.43;54.51
26859;BME280;14429;48.346;16.338;2022-12-18T00:50:57;101342.59;;;11.62;54.08
26859;BME280;14429;48.346;16.338;2022-12-18T00:53:22;101345.44;;;11.57;54.36
26859;BME280;14429;48.346;16.338;2022-12-18T00:55:48;101344.94;;;11.50;54.44
26859;BME280;14429;48.346;16.338;2022-12-18T00:58:16;101345.03;;;11.66;53.91
26859;BME280;14429;48.346;16.338;2022-12-18T01:00:42;101360.97;;;11.50;54.43
26859;BME280;14429;48.346;16.338;2022-12-18T01:03:09;101362.72;;;11.51;54.42
26859;BME280;14429;48.346;16.338;2022-12-18T01:05:38;101360.34;;;11.63;54.29
26859;BME280;14429;48.346;16.338;2022-12-18T01:08:04;101360.19;;;11.48;54.65
26859;BME280;14429;48.346;16.338;2022-12-18T01:10:29;101364.97;;;11.59;54.39
26859;BME280;14429;48.346;16.338;2022-12-18T01:12:55;101364.88;;;11.61;54.20
26859;BME280;14429;48.346;16.338;2022-12-18T01:15:22;101367.13;;;11.52;54.52
26859;BME280;14429;48.346;16.338;2022-12-18T01:17:47;101363.81;;;11.65;54.02
26859;BME280;14429;48.346;16.338;2022-12-18T01:20:13;101364.97;;;11.59;54.01
26859;BME280;14429;48.346;16.338;2022-12-18T01:22:38;101368.72;;;11.56;54.13
26859;BME280;14429;48.346;16.338;2022-12-18T01:25:04;101361.22;;;11.63;53.96
26859;BME280;14429;48.346;16.338;2022-12-18T01:27:30;101376.88;;;11.53;54.12
26859;BME280;14429;48.346;16.338;2022-12-18T01:29:55;101379.97;;;11.44;54.33
26859;BME280;14429;48.346;16.338;2022-12-18T01:32:22;101380.13;;;11.59;54.04
26859;BME280;14429;48.346;16.338;2022-12-18T01:34:48;101377.81;;;11.52;54.05
26859;BME280;14429;48.346;16.338;2022-12-18T01:37:13;101385.69;;;11.55;54.03
26859;BME280;14429;48.346;16.338;2022-12-18T01:39:39;101384.44;;;11.61;53.71
26859;BME280;14429;48.346;16.338;2022-12-18T01:42:09;101399.31;;;11.49;54.17
26859;BME280;14429;48.346;16.338;2022-12-18T01:45:08;101393.53;;;11.57;53.97
26859;BME280;14429;48.346;16.338;2022-12-18T01:47:49;101386.59;;;11.54;53.86
26859;BME280;14429;48.346;16.338;2022-12-18T01:50:18;101392.50;;;11.42;54.31
26859;BME280;14429;48.346;16.338;2022-12-18T01:52:47;101393.72;;;11.55;53.73
26859;BME280;14429;48.346;16.338;2022-12-18T01:55:15;101390.34;;;11.50;53.99
26859;BME280;14429;48.346;16.338;2022-12-18T01:57:42;101399.31;;;11.49;54.13
26859;BME280;14429;48.346;16.338;2022-12-18T02:00:11;101399.63;;;11.61;53.74
26859;BME280;14429;48.346;16.338;2022-12-18T02:02:37;101400.25;;;11.48;54.21
26859;BME280;14429;48.346;16.338;2022-12-18T02:05:06;101398.84;;;11.59;53.79
26859;BME280;14429;48.346;16.338;2022-12-18T02:07:48;101398.97;;;11.56;53.86
26859;BME280;14429;48.346;16.338;2022-12-18T02:10:20;101408.78;;;11.56;53.81
26859;BME280;14429;48.346;16.338;2022-12-18T02:12:55;101401.41;;;11.60;53.68
26859;BME280;14429;48.346;16.338;2022-12-18T02:15:28;101404.66;;;11.49;53.95
26859;BME280;14429;48.346;16.338;2022-12-18T02:18:00;101402.81;;;11.51;53.97
26859;BME280;14429;48.346;16.338;2022-12-18T02:20:35;101410.50;;;11.57;53.66
26859;BME280;14429;48.346;16.338;2022-12-18T02:23:08;101401.78;;;11.33;54.20
26859;BME280;14429;48.346;16.338;2022-12-18T02:28:44;101414.91;;;11.57;53.53
26859;BME280;14429;48.346;16.338;2022-12-18T02:31:14;101420.56;;;11.52;53.56
26859;BME280;14429;48.346;16.338;2022-12-18T02:33:43;101416.25;;;11.67;53.37
26859;BME280;14429;48.346;16.338;2022-12-18T02:36:10;101409.72;;;11.55;53.43
26859;BME280;14429;48.346;16.338;2022-12-18T02:38:37;101420.25;;;11.57;53.40
26859;BME280;14429;48.346;16.338;2022-12-18T02:41:05;101420.13;;;11.60;53.15
26859;BME280;14429;48.346;16.338;2022-12-18T02:43:31;101422.53;;;11.47;53.74
26859;BME280;14429;48.346;16.338;2022-12-18T02:46:00;101426.41;;;11.59;53.38
26859;BME280;14429;48.346;16.338;2022-12-18T02:48:29;101433.78;;;11.55;53.38
26859;BME280;14429;48.346;16.338;2022-12-18T02:51:00;101436.84;;;11.46;53.80
26859;BME280;14429;48.346;16.338;2022-12-18T02:53:35;101438.81;;;11.60;53.39
26859;BME280;14429;48.346;16.338;2022-12-18T02:56:05;101434.69;;;11.54;53.63
26859;BME280;14429;48.346;16.338;2022-12-18T02:58:40;101448.84;;;11.56;53.34
26859;BME280;14429;48.346;16.338;2022-12-18T03:01:15;101438.19;;;11.56;53.33
26859;BME280;14429;48.346;16.338;2022-12-18T03:03:46;101442.78;;;11.52;53.50
26859;BME280;14429;48.346;16.338;2022-12-18T03:06:18;101439.63;;;11.62;53.21
26859;BME280;14429;48.346;16.338;2022-12-18T03:08:48;101442.53;;;11.58;53.12
26859;BME280;14429;48.346;16.338;2022-12-18T03:11:16;101438.72;;;11.44;53.75
26859;BME280;14429;48.346;16.338;2022-12-18T03:13:44;101441.63;;;11.57;52.95
26859;BME280;14429;48.346;16.338;2022-12-18T03:16:16;101433.91;;;11.52;53.13
26859;BME280;14429;48.346;16.338;2022-12-18T03:18:47;101436.72;;;11.49;53.34
26859;BME280;14429;48.346;16.338;2022-12-18T03:21:17;101429.22;;;11.57;52.99
26859;BME280;14429;48.346;16.338;2022-12-18T03:23:47;101434.03;;;11.49;53.21
26859;BME280;14429;48.346;16.338;2022-12-18T03:26:16;101430.81;;;11.60;52.80
26859;BME280;14429;48.346;16.338;2022-12-18T03:28:47;101439.91;;;11.57;52.73
26859;BME280;14429;48.346;16.338;2022-12-18T03:31:17;101440.59;;;11.42;53.26
26859;BME280;14429;48.346;16.338;2022-12-18T03:33:46;101436.84;;;11.46;53.27
26859;BME280;14429;48.346;16.338;2022-12-18T03:36:16;101434.69;;;11.54;52.95
26859;BME280;14429;48.346;16.338;2022-12-18T03:38:42;101434.91;;;11.49;53.06
26859;BME280;14429;48.346;16.338;2022-12-18T03:41:13;101441.50;;;11.60;52.68
26859;BME280;14429;48.346;16.338;2022-12-18T03:43:49;101439.59;;;11.44;53.17
26859;BME280;14429;48.346;16.338;2022-12-18T03:46:24;101439.91;;;11.57;52.84
26859;BME280;14429;48.346;16.338;2022-12-18T03:48:56;101435.38;;;11.39;52.80
26859;BME280;14429;48.346;16.338;2022-12-18T03:51:28;101443.34;;;11.40;53.33
26859;BME280;14429;48.346;16.338;2022-12-18T03:53:58;101442.53;;;11.58;52.80
26859;BME280;14429;48.346;16.338;2022-12-18T03:56:26;101443.25;;;11.42;53.17
26859;BME280;14429;48.346;16.338;2022-12-18T03:58:55;101441.25;;;11.47;53.03
26859;BME280;14429;48.346;16.338;2022-12-18T04:01:28;101452.47;;;11.55;52.74
26859;BME280;14429;48.346;16.338;2022-12-18T04:03:56;101458.50;;;11.40;53.27
26859;BME280;14429;48.346;16.338;2022-12-18T04:06:24;101457.09;;;11.51;53.13
26859;BME280;14429;48.346;16.338;2022-12-18T04:08:50;101465.28;;;11.47;53.16
26859;BME280;14429;48.346;16.338;2022-12-18T04:11:16;101467.53;;;11.36;53.25
26859;BME280;14429;48.346;16.338;2022-12-18T04:13:42;101459.75;;;11.51;52.82
26859;BME280;14429;48.346;16.338;2022-12-18T04:16:08;101466.22;;;11.46;53.06
26859;BME280;14429;48.346;16.338;2022-12-18T04:18:35;101468.28;;;11.39;53.19
26859;BME280;14429;48.346;16.338;2022-12-18T04:21:01;101467.28;;;11.42;53.03
26859;BME280;14429;48.346;16.338;2022-12-18T04:23:26;101467.91;;;11.27;53.39
26859;BME280;14429;48.346;16.338;2022-12-18T04:25:52;101473.50;;;11.42;53.02
26859;BME280;14429;48.346;16.338;2022-12-18T04:28:17;101476.13;;;11.44;52.96
26859;BME280;14429;48.346;16.338;2022-12-18T04:30:43;101484.47;;;11.35;53.19
26859;BME280;14429;48.346;16.338;2022-12-18T04:33:09;101491.72;;;11.53;52.61
26859;BME280;14429;48.346;16.338;2022-12-18T04:35:35;101488.44;;;11.46;52.72
26859;BME280;14429;48.346;16.338;2022-12-18T04:38:01;101497.75;;;11.38;53.09
26859;BME280;14429;48.346;16.338;2022-12-18T04:40:26;101505.75;;;11.38;52.90
26859;BME280;14429;48.346;16.338;2022-12-18T04:42:52;101496.78;;;11.39;52.93
26859;BME280;14429;48.346;16.338;2022-12-18T04:45:17;101493.75;;;11.48;52.58
26859;BME280;14429;48.346;16.338;2022-12-18T04:47:42;101490.25;;;11.46;52.56
26859;BME280;14429;48.346;16.338;2022-12-18T04:50:08;101495.13;;;11.36;52.91
26859;BME280;14429;48.346;16.338;2022-12-18T04:52:35;101500.81;;;11.49;52.64
26859;BME280;14429;48.346;16.338;2022-12-18T04:55:00;101500.28;;;11.41;52.63
26859;BME280;14429;48.346;16.338;2022-12-18T04:57:26;101504.31;;;11.30;52.96
26859;BME280;14429;48.346;16.338;2022-12-18T04:59:51;101518.91;;;11.42;52.62
26859;BME280;14429;48.346;16.338;2022-12-18T05:02:17;101522.81;;;11.34;52.84
26859;BME280;14429;48.346;16.338;2022-12-18T05:04:42;101524.44;;;11.38;52.82
26859;BME280;14429;48.346;16.338;2022-12-18T05:07:08;101531.34;;;11.43;52.50
26859;BME280;14429;48.346;16.338;2022-12-18T05:09:34;101528.16;;;11.34;52.75
26859;BME280;14429;48.346;16.338;2022-12-18T05:12:01;101532.06;;;11.47;52.34
26859;BME280;14429;48.346;16.338;2022-12-18T05:14:26;101535.00;;;11.41;52.62
26859;BME280;14429;48.346;16.338;2022-12-18T05:16:52;101537.22;;;11.30;52.92
26859;BME280;14429;48.346;16.338;2022-12-18T05:19:17;101534.88;;;11.44;52.36
26859;BME280;14429;48.346;16.338;2022-12-18T05:21:43;101537.97;;;11.33;52.56
26859;BME280;14429;48.346;16.338;2022-12-18T05:24:08;101542.19;;;11.39;52.44
26859;BME280;14429;48.346;16.338;2022-12-18T05:26:35;101547.16;;;11.48;52.11
26859;BME280;14429;48.346;16.338;2022-12-18T05:29:00;101546.97;;;11.31;52.61
26859;BME280;14429;48.346;16.338;2022-12-18T05:31:26;101546.34;;;11.46;nan
26859;BME280;14429;48.346;16.338;2022-12-18T05:33:51;101551.03;;;11.41;52.26
26859;BME280;14429;48.346;16.338;2022-12-18T05:36:16;101550.03;;;11.22;52.58
26859;BME280;14429;48.346;16.338;2022-12-18T05:38:42;101543.97;;;11.40;52.25
26859;BME280;14429;48.346;16.338;2022-12-18T05:41:08;101547.53;;;11.39;52.38
26859;BME280;14429;48.346;16.338;2022-12-18T05:43:36;101561.84;;;11.38;52.34
26859;BME280;14429;48.346;16.338;2022-12-18T05:46:05;101546.47;;;11.43;52.05
26859;BME280;14429;48.346;16.338;2022-12-18T05:48:31;101549.63;;;11.31;52.33
26859;BME280;14429;48.346;16.338;2022-12-18T05:51:03;101560.91;;;11.39;52.22
26859;BME280;14429;48.346;16.338;2022-12-18T05:53:29;101557.41;;;11.37;52.15
26859;BME280;14429;48.346;16.338;2022-12-18T05:55:54;101571.00;;;11.31;52.57
26859;BME280;14429;48.346;16.338;2022-12-18T05:58:19;101557.22;;;11.41;52.04
26859;BME280;14429;48.346;16.338;2022-12-18T06:00:46;101551.16;;;11.38;52.06
26859;BME280;14429;48.346;16.338;2022-12-18T06:03:13;101563.81;;;11.33;51.97
26859;BME280;14429;48.346;16.338;2022-12-18T06:05:40;101567.19;;;11.38;51.92
26859;BME280;14429;48.346;16.338;2022-12-18T06:08:06;101563.50;;;11.19;52.62
26859;BME280;14429;48.346;16.338;2022-12-18T06:10:32;101575.94;;;11.41;51.97
26859;BME280;14429;48.346;16.338;2022-12-18T06:12:57;101577.94;;;11.35;51.96
26859;BME280;14429;48.346;16.338;2022-12-18T06:15:23;101582.94;;;11.23;52.39
26859;BME280;14429;48.346;16.338;2022-12-18T06:17:50;101583.09;;;11.41;52.05
26859;BME280;14429;48.346;16.338;2022-12-18T06:20:15;101593.22;;;11.31;52.28
26859;BME280;14429;48.346;16.338;2022-12-18T06:22:41;101585.16;;;11.33;52.17
26859;BME280;14429;48.346;16.338;2022-12-18T06:25:07;101606.28;;;11.39;52.06
26859;BME280;14429;48.346;16.338;2022-12-18T06:27:32;101607.63;;;11.28;52.33
26859;BME280;14429;48.346;16.338;2022-12-18T06:29:58;101605.38;;;11.40;51.99
26859;BME280;14429;48.346;16.338;2022-12-18T06:32:23;101606.56;;;11.31;52.07
26859;BME280;14429;48.346;16.338;2022-12-18T06:34:50;101608.78;;;11.22;52.40
26859;BME280;14429;48.346;16.338;2022-12-18T06:37:16;101599.31;;;11.35;52.02
26859;BME280;14429;48.346;16.338;2022-12-18T06:39:41;101606.16;;;11.21;52.30
26859;BME280;14429;48.346;16.338;2022-12-18T06:42:06;101618.47;;;11.25;52.42
26859;BME280;14429;48.346;16.338;2022-12-18T06:44:32;101604.81;;;11.32;52.10
26859;BME280;14429;48.346;16.338;2022-12-18T06:46:57;101611.44;;;11.22;52.22
26859;BME280;14429;48.346;16.338;2022-12-18T06:49:23;101630.50;;;11.34;51.80
26859;BME280;14429;48.346;16.338;2022-12-18T06:51:49;101632.38;;;11.32;51.88
26859;BME280;14429;48.346;16.338;2022-12-18T06:54:15;101631.88;;;11.23;52.07
26859;BME280;14429;48.346;16.338;2022-12-18T06:56:40;101645.66;;;11.34;51.75
26859;BME280;14429;48.346;16.338;2022-12-18T06:59:06;101634.31;;;11.29;51.94
26859;BME280;14429;48.346;16.338;2022-12-18T07:01:31;101647.47;;;11.33;51.69
26859;BME280;14429;48.346;16.338;2022-12-18T07:03:57;101659.19;;;11.30;51.90
26859;BME280;14429;48.346;16.338;2022-12-18T07:06:24;101664.03;;;11.20;52.13
26859;BME280;14429;48.346;16.338;2022-12-18T07:08:53;101656.34;;;11.34;51.70
26859;BME280;14429;48.346;16.338;2022-12-18T07:11:19;101659.88;;;11.34;51.62
26859;BME280;14429;48.346;16.338;2022-12-18T07:13:45;101663.78;;;11.26;51.78
26859;BME280;14429;48.346;16.338;2022-12-18T07:16:12;101665.16;;;11.36;51.63
26859;BME280;14429;48.346;16.338;2022-12-18T07:18:38;101663.28;;;11.17;52.01
26859;BME280;14429;48.346;16.338;2022-12-18T07:21:04;101675.97;;;11.33;51.73
26859;BME280;14429;48.346;16.338;2022-12-18T07:23:30;101674.25;;;11.32;51.41
26859;BME280;14429;48.346;16.338;2022-12-18T07:26:03;101687.25;;;11.18;51.94
26859;BME280;14429;48.346;16.338;2022-12-18T07:28:28;101680.38;;;11.34;51.56
26859;BME280;14429;48.346;16.338;2022-12-18T07:30:54;101677.94;;;11.28;51.67
26859;BME280;14429;48.346;16.338;2022-12-18T07:33:19;101680.69;;;11.27;51.77
26859;BME280;14429;48.346;16.338;2022-12-18T07:35:45;101685.78;;;11.32;51.47
26859;BME280;14429;48.346;16.338;2022-12-18T07:38:10;101688.50;;;11.10;51.99
26859;BME280;14429;48.346;16.338;2022-12-18T07:40:35;101695.59;;;11.32;51.50
26859;BME280;14429;48.346;16.338;2022-12-18T07:43:02;101708.03;;;11.33;51.54
26859;BME280;14429;48.346;16.338;2022-12-18T07:45:31;101709.59;;;11.16;51.72
26859;BME280;14429;48.346;16.338;2022-12-18T07:47:56;101706.28;;;11.32;51.70
26859;BME280;14429;48.346;16.338;2022-12-18T07:50:22;101706.41;;;11.29;51.45
26859;BME280;14429;48.346;16.338;2022-12-18T07:52:47;101709.13;;;11.28;51.46
26859;BME280;14429;48.346;16.338;2022-12-18T07:55:13;101711.47;;;11.35;51.30
26859;BME280;14429;48.346;16.338;2022-12-18T07:57:38;101715.69;;;11.19;51.73
26859;BME280;14429;48.346;16.338;2022-12-18T08:00:06;101725.59;;;11.40;51.25
26859;BME280;14429;48.346;16.338;2022-12-18T08:02:32;101731.13;;;11.34;51.24
26859;BME280;14429;48.346;16.338;2022-12-18T08:04:57;101728.94;;;11.22;51.62
26859;BME280;14429;48.346;16.338;2022-12-18T08:07:23;101722.09;;;11.38;51.13
26859;BME280;14429;48.346;16.338;2022-12-18T08:09:48;101728.94;;;11.22;51.48
26859;BME280;14429;48.346;16.338;2022-12-18T08:12:13;101734.00;;;11.28;51.34
26859;BME280;14429;48.346;16.338;2022-12-18T08:14:39;101722.31;;;11.32;51.18
26859;BME280;14429;48.346;16.338;2022-12-18T08:17:06;101737.06;;;11.19;51.57
26859;BME280;14429;48.346;16.338;2022-12-18T08:19:31;101740.94;;;11.33;51.18
26859;BME280;14429;48.346;16.338;2022-12-18T08:21:56;101734.00;;;11.28;51.36
26859;BME280;14429;48.346;16.338;2022-12-18T08:24:22;101734.94;;;11.27;51.30
26859;BME280;14429;48.346;16.338;2022-12-18T08:26:47;101732.84;;;11.35;51.14
26859;BME280;14429;48.346;16.338;2022-12-18T08:29:13;101720.81;;;11.25;51.29
26859;BME280;14429;48.346;16.338;2022-12-18T08:31:38;101727.44;;;11.38;50.95
26859;BME280;14429;48.346;16.338;2022-12-18T08:34:05;101732.66;;;11.41;50.87
26859;BME280;14429;48.346;16.338;2022-12-18T08:36:30;101734.63;;;11.36;51.07
26859;BME280;14429;48.346;16.338;2022-12-18T08:38:56;101728.56;;;11.54;50.60
26859;BME280;14429;48.346;16.338;2022-12-18T08:41:21;101728.81;;;11.48;50.60
26859;BME280;14429;48.346;16.338;2022-12-18T08:43:47;101733.44;;;11.43;50.83
26859;BME280;14429;48.346;16.338;2022-12-18T08:46:15;101741.59;;;11.61;50.34
26859;BME280;14429;48.346;16.338;2022-12-18T08:48:41;101731.47;;;11.48;50.60
26859;BME280;14429;48.346;16.338;2022-12-18T08:51:08;101734.63;;;11.57;50.54
26859;BME280;14429;48.346;16.338;2022-12-18T08:53:33;101735.78;;;11.52;50.47
26859;BME280;14429;48.346;16.338;2022-12-18T08:55:59;101741.59;;;11.40;50.80
26859;BME280;14429;48.346;16.338;2022-12-18T08:58:24;101751.53;;;11.57;50.51
26859;BME280;14429;48.346;16.338;2022-12-18T09:00:50;101748.31;;;11.50;50.57
26859;BME280;14429;48.346;16.338;2022-12-18T09:03:16;101748.56;;;11.44;51.03
26859;BME280;14429;48.346;16.338;2022-12-18T09:05:42;101758.13;;;11.49;50.76
26859;BME280;14429;48.346;16.338;2022-12-18T09:08:09;101759.41;;;11.39;50.93
26859;BME280;14429;48.346;16.338;2022-12-18T09:10:41;101760.50;;;11.57;50.66
26859;BME280;14429;48.346;16.338;2022-12-18T09:13:07;101764.53;;;11.45;50.91
26859;BME280;14429;48.346;16.338;2022-12-18T09:15:32;101764.72;;;11.41;51.01
26859;BME280;14429;48.346;16.338;2022-12-18T09:17:57;101767.94;;;11.49;50.83
26859;BME280;14429;48.346;16.338;2022-12-18T09:20:23;101761.31;;;11.36;51.08
26859;BME280;14429;48.346;16.338;2022-12-18T09:22:48;101767.31;;;11.42;51.03
26859;BME280;14429;48.346;16.338;2022-12-18T09:25:15;101767.00;;;11.27;50.13
26859;BME280;14429;48.346;16.338;2022-12-18T09:27:40;101775.59;;;11.12;51.23
26859;BME280;14429;48.346;16.338;2022-12-18T09:30:07;101773.50;;;11.20;51.27
26859;BME280;14429;48.346;16.338;2022-12-18T09:32:32;101768.28;;;10.23;41.62
26859;BME280;14429;48.346;16.338;2022-12-18T09:34:58;101757.59;;;10.95;52.06
26859;BME280;14429;48.346;16.338;2022-12-18T09:37:23;101749.25;;;11.26;51.39
26859;BME280;14429;48.346;16.338;2022-12-18T09:39:49;101763.53;;;11.25;51.30
26859;BME280;14429;48.346;16.338;2022-12-18T09:42:20;101755.97;;;11.36;51.18
26859;BME280;14429;48.346;16.338;2022-12-18T09:44:49;101761.31;;;11.36;51.03
26859;BME280;14429;48.346;16.338;2022-12-18T09:47:17;101749.13;;;11.29;51.06
26859;BME280;14429;48.346;16.338;2022-12-18T09:49:45;101748.56;;;11.21;46.18
26859;BME280;14429;48.346;16.338;2022-12-18T09:52:17;101745.53;;;11.30;51.23
26859;BME280;14429;48.346;16.338;2022-12-18T09:54:47;101735.81;;;11.28;51.34
26859;BME280;14429;48.346;16.338;2022-12-18T09:57:18;101742.84;;;11.53;50.65
26859;BME280;14429;48.346;16.338;2022-12-18T09:59:50;101749.81;;;11.34;51.10
26859;BME280;14429;48.346;16.338;2022-12-18T10:02:20;101744.13;;;11.43;50.98
26859;BME280;14429;48.346;16.338;2022-12-18T10:04:54;101741.03;;;11.30;51.17
26859;BME280;14429;48.346;16.338;2022-12-18T10:07:28;101740.41;;;11.24;51.26
26859;BME280;14429;48.346;16.338;2022-12-18T10:10:02;101732.81;;;11.36;51.07
26859;BME280;14429;48.346;16.338;2022-12-18T10:12:34;101736.66;;;10.84;50.12
26859;BME280;14429;48.346;16.338;2022-12-18T10:15:05;101742.66;;;11.13;51.58
26859;BME280;14429;48.346;16.338;2022-12-18T10:17:39;101735.97;;;11.25;51.50
26859;BME280;14429;48.346;16.338;2022-12-18T10:20:12;101737.72;;;11.24;51.47
26859;BME280;14429;48.346;16.338;2022-12-18T10:22:46;101732.75;;;11.38;51.06
26859;BME280;14429;48.346;16.338;2022-12-18T10:25:19;101732.16;;;11.30;51.29
26859;BME280;14429;48.346;16.338;2022-12-18T10:27:48;101738.00;;;11.41;51.10
26859;BME280;14429;48.346;16.338;2022-12-18T10:30:18;101727.31;;;10.96;48.65
26859;BME280;14429;48.346;16.338;2022-12-18T10:32:44;101732.84;;;10.91;51.53
26859;BME280;14429;48.346;16.338;2022-12-18T10:35:16;101723.22;;;11.31;51.12
26859;BME280;14429;48.346;16.338;2022-12-18T10:38:02;101734.94;;;11.27;51.02
26859;BME280;14429;48.346;16.338;2022-12-18T10:40:28;101722.81;;;10.51;45.14
26859;BME280;14429;48.346;16.338;2022-12-18T10:43:05;101741.09;;;8.14;48.26
26859;BME280;14429;48.346;16.338;2022-12-18T10:45:30;101734.63;;;9.95;54.09
26859;BME280;14429;48.346;16.338;2022-12-18T10:47:56;101721.22;;;10.46;53.55
26859;BME280;14429;48.346;16.338;2022-12-18T10:50:25;101717.59;;;10.24;51.60
26859;BME280;14429;48.346;16.338;2022-12-18T10:52:58;101708.19;;;10.61;52.89
26859;BME280;14429;48.346;16.338;2022-12-18T10:55:28;101700.53;;;10.52;49.52
26859;BME280;14429;48.346;16.338;2022-12-18T10:58:15;101710.69;;;9.41;43.15
26859;BME280;14429;48.346;16.338;2022-12-18T11:00:41;101710.38;;;10.50;52.99
26859;BME280;14429;48.346;16.338;2022-12-18T11:03:29;101705.69;;;10.56;52.05
26859;BME280;14429;48.346;16.338;2022-12-18T11:06:02;101705.03;;;9.51;52.93
26859;BME280;14429;48.346;16.338;2022-12-18T11:08:28;101710.59;;;10.20;52.19
26859;BME280;14429;48.346;16.338;2022-12-18T11:10:53;101703.75;;;10.61;53.11
26859;BME280;14429;48.346;16.338;2022-12-18T11:13:21;101707.53;;;10.32;51.84
26859;BME280;14429;48.346;16.338;2022-12-18T11:15:48;101700.66;;;9.48;47.10
26859;BME280;14429;48.346;16.338;2022-12-18T11:18:19;101722.16;;;7.60;42.73
26859;BME280;14429;48.346;16.338;2022-12-18T11:20:50;101721.91;;;7.69;43.88
26859;BME280;14429;48.346;16.338;2022-12-18T11:23:16;101719.59;;;8.54;52.62
26859;BME280;14429;48.346;16.338;2022-12-18T11:25:51;101733.25;;;8.09;55.39
26859;BME280;14429;48.346;16.338;2022-12-18T11:28:28;101718.34;;;9.49;55.93
26859;BME280;14429;48.346;16.338;2022-12-18T11:31:11;101721.06;;;10.02;54.97
26859;BME280;14429;48.346;16.338;2022-12-18T11:33:38;101715.56;;;9.27;53.59
26859;BME280;14429;48.346;16.338;2022-12-18T11:36:08;101704.59;;;9.90;54.73
26859;BME280;14429;48.346;16.338;2022-12-18T11:38:37;101701.53;;;9.22;55.04
26859;BME280;14429;48.346;16.338;2022-12-18T11:41:09;101706.75;;;9.52;53.80
26859;BME280;14429;48.346;16.338;2022-12-18T11:43:44;101707.34;;;9.61;53.81
26859;BME280;14429;48.346;16.338;2022-12-18T11:46:13;101716.75;;;7.97;47.47
26859;BME280;14429;48.346;16.338;2022-12-18T11:48:44;101707.13;;;6.86;47.65
26859;BME280;14429;48.346;16.338;2022-12-18T11:51:15;101706.38;;;7.54;54.44
26859;BME280;14429;48.346;16.338;2022-12-18T11:53:42;101699.25;;;8.23;58.69
26859;BME280;14429;48.346;16.338;2022-12-18T11:56:28;101701.16;;;7.14;45.25
26859;BME280;14429;48.346;16.338;2022-12-18T11:59:02;101708.72;;;6.11;57.26
26859;BME280;14429;48.346;16.338;2022-12-18T12:01:39;101711.94;;;6.26;50.92
26859;BME280;14429;48.346;16.338;2022-12-18T12:04:19;101712.22;;;5.07;49.54
26859;BME280;14429;48.346;16.338;2022-12-18T12:06:58;101703.63;;;6.00;49.77
26859;BME280;14429;48.346;16.338;2022-12-18T12:09:34;101710.78;;;5.42;53.52
26859;BME280;14429;48.346;16.338;2022-12-18T12:12:14;101723.63;;;5.10;51.31
26859;BME280;14429;48.346;16.338;2022-12-18T12:14:49;101710.81;;;5.39;50.77
26859;BME280;14429;48.346;16.338;2022-12-18T12:17:26;101709.09;;;5.38;57.72
26859;BME280;14429;48.346;16.338;2022-12-18T12:20:02;101712.28;;;4.39;51.19
26859;BME280;14429;48.346;16.338;2022-12-18T12:22:36;101705.28;;;4.35;55.33
26859;BME280;14429;48.346;16.338;2022-12-18T12:25:16;101701.59;;;6.13;63.33
26859;BME280;14429;48.346;16.338;2022-12-18T12:27:52;101702.38;;;6.61;62.62
26859;BME280;14429;48.346;16.338;2022-12-18T12:30:29;101711.94;;;4.67;50.42
26859;BME280;14429;48.346;16.338;2022-12-18T12:33:05;101715.91;;;4.32;55.79
26859;BME280;14429;48.346;16.338;2022-12-18T12:35:44;101702.25;;;5.25;60.35
26859;BME280;14429;48.346;16.338;2022-12-18T12:38:13;101689.59;;;5.45;64.18
26859;BME280;14429;48.346;16.338;2022-12-18T12:40:44;101690.75;;;6.26;60.69
26859;BME280;14429;48.346;16.338;2022-12-18T12:43:21;101691.25;;;4.97;53.36
26859;BME280;14429;48.346;16.338;2022-12-18T12:45:53;101702.56;;;5.05;56.91
26859;BME280;14429;48.346;16.338;2022-12-18T12:48:27;101700.66;;;5.15;61.59
26859;BME280;14429;48.346;16.338;2022-12-18T12:50:57;101706.94;;;5.61;63.20